CFG9VA EDDF-EDDL
Flight info
| Callsign | CFG9VA |
|---|---|
| Flight time | 0h 32m |
| Altitude | 24000 |
| Route | MARUN3W/25C MARUN Y152 ARPEG Z850 ADEMI T854 DOMUX DOMUX1A |
| Aircraft | A320/M-SDE3FGHIRWY/LB1 |
Departure
| Time | 2026-05-07 18:06 |
|---|---|
| Airport | Frankfurt Main Airport (EDDF) |
Arrival
| Time | 2026-05-07 18:39 |
|---|---|
| Airport | Düsseldorf Airport (EDDL) |
| Time | Latitude | Longitude | Altitude | Speed | Heading |
|---|---|---|---|---|---|
| 2026-05-07 17:26 | 50.04883 | 8.57153 | 356 ft | 0 kts | 161° |
| 2026-05-07 17:56 | 50.04880 | 8.57152 | 356 ft | 2 kts | 176° |
| 2026-05-07 17:56 | 50.04857 | 8.57113 | 362 ft | 9 kts | 230° |
| 2026-05-07 17:57 | 50.04783 | 8.57030 | 356 ft | 18 kts | 199° |
| 2026-05-07 17:57 | 50.04707 | 8.56963 | 360 ft | 20 kts | 213° |
| 2026-05-07 17:57 | 50.04553 | 8.56900 | 359 ft | 13 kts | 193° |
| 2026-05-07 17:57 | 50.04461 | 8.56860 | 359 ft | 19 kts | 192° |
| 2026-05-07 17:58 | 50.04330 | 8.56826 | 360 ft | 13 kts | 172° |
| 2026-05-07 17:58 | 50.04285 | 8.56913 | 364 ft | 11 kts | 89° |
| 2026-05-07 17:58 | 50.04322 | 8.57085 | 365 ft | 20 kts | 69° |
| 2026-05-07 17:58 | 50.04368 | 8.57291 | 361 ft | 21 kts | 70° |
| 2026-05-07 17:59 | 50.04418 | 8.57507 | 364 ft | 22 kts | 71° |
| 2026-05-07 17:59 | 50.04472 | 8.57723 | 370 ft | 22 kts | 68° |
| 2026-05-07 17:59 | 50.04518 | 8.57917 | 365 ft | 15 kts | 72° |
| 2026-05-07 17:59 | 50.04537 | 8.57995 | 366 ft | 6 kts | 70° |
| 2026-05-07 18:00 | 50.04554 | 8.58071 | 364 ft | 10 kts | 70° |
| 2026-05-07 18:00 | 50.04590 | 8.58217 | 367 ft | 16 kts | 69° |
| 2026-05-07 18:00 | 50.04624 | 8.58364 | 369 ft | 10 kts | 71° |
| 2026-05-07 18:00 | 50.04641 | 8.58440 | 369 ft | 0 kts | 69° |
| 2026-05-07 18:01 | 50.04643 | 8.58446 | 369 ft | 2 kts | 72° |
| 2026-05-07 18:01 | 50.04644 | 8.58456 | 373 ft | 0 kts | 71° |
| 2026-05-07 18:01 | 50.04648 | 8.58488 | 371 ft | 6 kts | 83° |
| 2026-05-07 18:02 | 50.04591 | 8.58593 | 369 ft | 7 kts | 154° |
| 2026-05-07 18:02 | 50.04553 | 8.58616 | 372 ft | 4 kts | 163° |
| 2026-05-07 18:02 | 50.04529 | 8.58624 | 371 ft | 4 kts | 171° |
| 2026-05-07 18:03 | 50.04507 | 8.58615 | 371 ft | 3 kts | 205° |
| 2026-05-07 18:03 | 50.04491 | 8.58587 | 370 ft | 4 kts | 237° |
| 2026-05-07 18:03 | 50.04482 | 8.58560 | 370 ft | 0 kts | 244° |
| 2026-05-07 18:03 | 50.04480 | 8.58555 | 370 ft | 1 kts | 244° |
| 2026-05-07 18:04 | 50.04480 | 8.58553 | 370 ft | 0 kts | 244° |
| 2026-05-07 18:05 | 50.04479 | 8.58552 | 370 ft | 1 kts | 244° |
| 2026-05-07 18:05 | 50.04416 | 8.58291 | 370 ft | 63 kts | 250° |
| 2026-05-07 18:05 | 50.04186 | 8.57320 | 368 ft | 127 kts | 250° |
| 2026-05-07 18:05 | 50.03809 | 8.55722 | 379 ft | 174 kts | 249° |
| 2026-05-07 18:06 | 50.03365 | 8.53890 | 805 ft | 188 kts | 249° |
| 2026-05-07 18:06 | 50.02893 | 8.51925 | 1369 ft | 200 kts | 246° |
| 2026-05-07 18:06 | 50.02065 | 8.50152 | 1922 ft | 211 kts | 227° |
| 2026-05-07 18:06 | 50.00952 | 8.48682 | 2633 ft | 212 kts | 210° |
| 2026-05-07 18:07 | 49.99550 | 8.47959 | 3281 ft | 215 kts | 192° |
| 2026-05-07 18:07 | 49.98093 | 8.47557 | 3960 ft | 216 kts | 190° |
| 2026-05-07 18:07 | 49.96604 | 8.47202 | 4642 ft | 217 kts | 190° |
| 2026-05-07 18:07 | 49.95120 | 8.46631 | 5140 ft | 228 kts | 198° |
| 2026-05-07 18:08 | 49.93523 | 8.45894 | 5566 ft | 247 kts | 198° |
| 2026-05-07 18:08 | 49.91963 | 8.44789 | 6320 ft | 249 kts | 221° |
| 2026-05-07 18:08 | 49.90904 | 8.42692 | 7108 ft | 249 kts | 249° |
| 2026-05-07 18:08 | 49.90623 | 8.40076 | 7886 ft | 249 kts | 277° |
| 2026-05-07 18:09 | 49.91184 | 8.37541 | 8677 ft | 252 kts | 304° |
| 2026-05-07 18:09 | 49.92477 | 8.35705 | 9468 ft | 257 kts | 332° |
| 2026-05-07 18:09 | 49.94131 | 8.34562 | 10008 ft | 273 kts | 336° |
| 2026-05-07 18:09 | 49.95941 | 8.33392 | 10369 ft | 292 kts | 336° |
| 2026-05-07 18:10 | 49.97894 | 8.32144 | 10612 ft | 315 kts | 336° |
| 2026-05-07 18:10 | 50.00006 | 8.30789 | 10797 ft | 339 kts | 336° |
| 2026-05-07 18:10 | 50.02287 | 8.29542 | 11182 ft | 354 kts | 345° |
| 2026-05-07 18:10 | 50.04748 | 8.29004 | 11825 ft | 361 kts | 356° |
| 2026-05-07 18:11 | 50.07272 | 8.29266 | 12507 ft | 367 kts | 8° |
| 2026-05-07 18:11 | 50.08920 | 8.29902 | 12957 ft | 371 kts | 16° |
| 2026-05-07 18:11 | 50.12222 | 8.31625 | 13862 ft | 376 kts | 17° |
| 2026-05-07 18:11 | 50.14740 | 8.32804 | 14452 ft | 379 kts | 8° |
| 2026-05-07 18:12 | 50.17375 | 8.33035 | 15041 ft | 380 kts | 358° |
| 2026-05-07 18:12 | 50.20017 | 8.32976 | 15651 ft | 383 kts | 357° |
| 2026-05-07 18:12 | 50.22690 | 8.32901 | 16254 ft | 386 kts | 357° |
| 2026-05-07 18:12 | 50.24482 | 8.32847 | 16673 ft | 389 kts | 357° |
| 2026-05-07 18:13 | 50.28119 | 8.32739 | 17467 ft | 393 kts | 357° |
| 2026-05-07 18:13 | 50.30868 | 8.32655 | 18070 ft | 397 kts | 357° |
| 2026-05-07 18:13 | 50.32705 | 8.32598 | 18456 ft | 399 kts | 357° |
| 2026-05-07 18:13 | 50.35487 | 8.32513 | 18989 ft | 402 kts | 357° |
| 2026-05-07 18:14 | 50.39213 | 8.32405 | 19651 ft | 406 kts | 357° |
| 2026-05-07 18:14 | 50.42053 | 8.32325 | 20150 ft | 409 kts | 357° |
| 2026-05-07 18:14 | 50.44912 | 8.32243 | 20639 ft | 412 kts | 357° |
| 2026-05-07 18:14 | 50.46861 | 8.32188 | 20962 ft | 414 kts | 357° |
| 2026-05-07 18:15 | 50.49751 | 8.32111 | 21430 ft | 417 kts | 357° |
| 2026-05-07 18:15 | 50.52631 | 8.32032 | 21561 ft | 426 kts | 358° |
| 2026-05-07 18:15 | 50.55588 | 8.31941 | 21977 ft | 424 kts | 357° |
| 2026-05-07 18:15 | 50.58568 | 8.31861 | 22072 ft | 422 kts | 357° |
| 2026-05-07 18:16 | 50.61508 | 8.31784 | 22071 ft | 421 kts | 357° |
| 2026-05-07 18:16 | 50.64399 | 8.31709 | 22059 ft | 421 kts | 357° |
| 2026-05-07 18:16 | 50.67332 | 8.31628 | 22065 ft | 421 kts | 357° |
| 2026-05-07 18:16 | 50.70263 | 8.31544 | 22058 ft | 421 kts | 357° |
| 2026-05-07 18:17 | 50.73195 | 8.31457 | 22058 ft | 421 kts | 357° |
| 2026-05-07 18:17 | 50.76124 | 8.31372 | 22062 ft | 421 kts | 357° |
| 2026-05-07 18:17 | 50.79052 | 8.31286 | 22060 ft | 421 kts | 357° |
| 2026-05-07 18:17 | 50.81981 | 8.31205 | 22061 ft | 421 kts | 357° |
| 2026-05-07 18:18 | 50.84912 | 8.31122 | 22061 ft | 421 kts | 357° |
| 2026-05-07 18:18 | 50.87837 | 8.31037 | 22065 ft | 421 kts | 357° |
| 2026-05-07 18:18 | 50.90766 | 8.30950 | 22071 ft | 421 kts | 357° |
| 2026-05-07 18:18 | 50.93700 | 8.30858 | 21519 ft | 424 kts | 357° |
| 2026-05-07 18:19 | 50.96676 | 8.30768 | 20526 ft | 429 kts | 357° |
| 2026-05-07 18:19 | 50.99641 | 8.30304 | 19969 ft | 427 kts | 348° |
| 2026-05-07 18:19 | 51.02513 | 8.29177 | 19484 ft | 424 kts | 340° |
| 2026-05-07 18:19 | 51.05235 | 8.27421 | 19006 ft | 420 kts | 332° |
| 2026-05-07 18:20 | 51.07790 | 8.25195 | 18533 ft | 417 kts | 329° |
| 2026-05-07 18:20 | 51.10279 | 8.22972 | 18020 ft | 414 kts | 329° |
| 2026-05-07 18:20 | 51.12790 | 8.20734 | 17481 ft | 411 kts | 329° |
| 2026-05-07 18:20 | 51.15280 | 8.18517 | 16946 ft | 408 kts | 329° |
| 2026-05-07 18:21 | 51.17760 | 8.16307 | 16426 ft | 405 kts | 329° |
| 2026-05-07 18:21 | 51.20215 | 8.14116 | 15913 ft | 403 kts | 329° |
| 2026-05-07 18:21 | 51.22652 | 8.11936 | 15406 ft | 400 kts | 329° |
| 2026-05-07 18:21 | 51.25074 | 8.09765 | 14917 ft | 397 kts | 329° |
| 2026-05-07 18:22 | 51.27476 | 8.07610 | 14421 ft | 394 kts | 329° |
| 2026-05-07 18:22 | 51.29060 | 8.06186 | 14184 ft | 393 kts | 329° |
| 2026-05-07 18:22 | 51.32207 | 8.03357 | 14070 ft | 392 kts | 329° |
| 2026-05-07 18:22 | 51.34589 | 8.01217 | 14087 ft | 393 kts | 329° |
| 2026-05-07 18:23 | 51.36971 | 7.99071 | 14089 ft | 393 kts | 329° |
| 2026-05-07 18:23 | 51.39352 | 7.96919 | 14086 ft | 393 kts | 329° |
| 2026-05-07 18:23 | 51.41721 | 7.94747 | 14084 ft | 392 kts | 327° |
| 2026-05-07 18:23 | 51.43751 | 7.91872 | 14087 ft | 390 kts | 307° |
| 2026-05-07 18:24 | 51.45134 | 7.88154 | 14090 ft | 389 kts | 292° |
| 2026-05-07 18:24 | 51.45948 | 7.84026 | 14085 ft | 388 kts | 281° |
| 2026-05-07 18:24 | 51.46206 | 7.79728 | 14083 ft | 388 kts | 268° |
| 2026-05-07 18:24 | 51.45678 | 7.75518 | 14087 ft | 388 kts | 249° |
| 2026-05-07 18:25 | 51.44530 | 7.71591 | 14086 ft | 389 kts | 244° |
| 2026-05-07 18:25 | 51.43317 | 7.67708 | 14090 ft | 388 kts | 244° |
| 2026-05-07 18:25 | 51.42108 | 7.63846 | 14088 ft | 387 kts | 244° |
| 2026-05-07 18:25 | 51.40898 | 7.59987 | 14075 ft | 387 kts | 244° |
| 2026-05-07 18:26 | 51.39688 | 7.56133 | 14078 ft | 387 kts | 243° |
| 2026-05-07 18:26 | 51.38482 | 7.52291 | 14049 ft | 386 kts | 243° |
| 2026-05-07 18:26 | 51.37283 | 7.48476 | 13492 ft | 381 kts | 243° |
| 2026-05-07 18:26 | 51.36105 | 7.44731 | 12871 ft | 380 kts | 244° |
| 2026-05-07 18:27 | 51.34919 | 7.40967 | 12277 ft | 378 kts | 243° |
| 2026-05-07 18:27 | 51.33735 | 7.37219 | 11684 ft | 376 kts | 243° |
| 2026-05-07 18:27 | 51.32555 | 7.33504 | 11203 ft | 373 kts | 244° |
| 2026-05-07 18:27 | 51.31374 | 7.29803 | 11053 ft | 373 kts | 244° |
| 2026-05-07 18:28 | 51.30195 | 7.26097 | 11069 ft | 375 kts | 244° |
| 2026-05-07 18:28 | 51.29014 | 7.22393 | 11073 ft | 374 kts | 244° |
| 2026-05-07 18:28 | 51.27832 | 7.18699 | 11074 ft | 373 kts | 243° |
| 2026-05-07 18:28 | 51.26649 | 7.14997 | 11081 ft | 373 kts | 243° |
| 2026-05-07 18:29 | 51.25475 | 7.11307 | 11079 ft | 373 kts | 243° |
| 2026-05-07 18:29 | 51.24309 | 7.07639 | 11079 ft | 373 kts | 243° |
| 2026-05-07 18:29 | 51.23137 | 7.03954 | 10982 ft | 370 kts | 243° |
| 2026-05-07 18:29 | 51.21973 | 7.00300 | 10398 ft | 368 kts | 243° |
| 2026-05-07 18:30 | 51.20838 | 6.96745 | 9800 ft | 350 kts | 243° |
| 2026-05-07 18:30 | 51.19766 | 6.93395 | 9162 ft | 332 kts | 243° |
| 2026-05-07 18:30 | 51.18739 | 6.90201 | 8619 ft | 316 kts | 243° |
| 2026-05-07 18:30 | 51.17769 | 6.87197 | 8110 ft | 301 kts | 243° |
| 2026-05-07 18:31 | 51.16863 | 6.84404 | 7619 ft | 290 kts | 243° |
| 2026-05-07 18:31 | 51.15953 | 6.81601 | 7116 ft | 280 kts | 243° |
| 2026-05-07 18:31 | 51.15068 | 6.78894 | 6613 ft | 272 kts | 243° |
| 2026-05-07 18:31 | 51.14192 | 6.76224 | 6100 ft | 270 kts | 243° |
| 2026-05-07 18:32 | 51.13324 | 6.73585 | 5578 ft | 269 kts | 243° |
| 2026-05-07 18:32 | 51.12462 | 6.70960 | 5065 ft | 268 kts | 243° |
| 2026-05-07 18:32 | 51.11598 | 6.68327 | 4549 ft | 266 kts | 243° |
| 2026-05-07 18:32 | 51.10745 | 6.65714 | 4023 ft | 265 kts | 243° |
| 2026-05-07 18:33 | 51.10089 | 6.63047 | 3513 ft | 262 kts | 263° |
| 2026-05-07 18:33 | 51.10260 | 6.60220 | 3068 ft | 257 kts | 294° |
| 2026-05-07 18:33 | 51.11279 | 6.57925 | 3020 ft | 253 kts | 317° |
| 2026-05-07 18:33 | 51.12620 | 6.56362 | 3019 ft | 227 kts | 334° |
| 2026-05-07 18:34 | 51.14094 | 6.55478 | 3037 ft | 226 kts | 348° |
| 2026-05-07 18:34 | 51.15609 | 6.54923 | 3032 ft | 226 kts | 346° |
| 2026-05-07 18:34 | 51.17150 | 6.54711 | 3039 ft | 219 kts | 14° |
| 2026-05-07 18:34 | 51.18467 | 6.55667 | 3039 ft | 201 kts | 38° |
| 2026-05-07 18:35 | 51.19389 | 6.57206 | 3063 ft | 184 kts | 54° |
| 2026-05-07 18:35 | 51.20130 | 6.58809 | 3026 ft | 176 kts | 53° |
| 2026-05-07 18:35 | 51.20859 | 6.60338 | 3030 ft | 174 kts | 52° |
| 2026-05-07 18:35 | 51.21588 | 6.61861 | 2942 ft | 175 kts | 50° |
| 2026-05-07 18:36 | 51.22295 | 6.63370 | 2611 ft | 162 kts | 52° |
| 2026-05-07 18:36 | 51.22931 | 6.64776 | 2298 ft | 152 kts | 52° |
| 2026-05-07 18:36 | 51.23568 | 6.66095 | 1934 ft | 148 kts | 48° |
| 2026-05-07 18:36 | 51.24189 | 6.67334 | 1633 ft | 143 kts | 51° |
| 2026-05-07 18:37 | 51.24779 | 6.68585 | 1344 ft | 138 kts | 50° |
| 2026-05-07 18:37 | 51.25375 | 6.69803 | 1124 ft | 137 kts | 51° |
| 2026-05-07 18:37 | 51.25955 | 6.70977 | 938 ft | 136 kts | 50° |
| 2026-05-07 18:37 | 51.26526 | 6.72185 | 753 ft | 136 kts | 51° |
| 2026-05-07 18:38 | 51.27101 | 6.73377 | 540 ft | 135 kts | 50° |
| 2026-05-07 18:38 | 51.27652 | 6.74547 | 339 ft | 135 kts | 53° |
| 2026-05-07 18:38 | 51.28205 | 6.75712 | 146 ft | 130 kts | 51° |
| 2026-05-07 18:38 | 51.28682 | 6.76691 | 127 ft | 94 kts | 53° |
| 2026-05-07 18:39 | 51.28957 | 6.77314 | 125 ft | 44 kts | 59° |
| 2026-05-07 18:39 | 51.29019 | 6.77463 | 127 ft | 1 kts | 76° |
| 2026-05-07 18:39 | 51.29016 | 6.77523 | 129 ft | 5 kts | 105° |
| 2026-05-07 18:39 | 51.28961 | 6.77626 | 129 ft | 12 kts | 139° |
| 2026-05-07 18:40 | 51.28853 | 6.77553 | 130 ft | 26 kts | 230° |
| 2026-05-07 18:40 | 51.28721 | 6.77261 | 127 ft | 38 kts | 233° |
| 2026-05-07 18:40 | 51.28561 | 6.76913 | 124 ft | 34 kts | 227° |
| 2026-05-07 18:40 | 51.28406 | 6.76601 | 123 ft | 41 kts | 232° |
| 2026-05-07 18:41 | 51.28239 | 6.76249 | 128 ft | 38 kts | 233° |
| 2026-05-07 18:41 | 51.28129 | 6.76031 | 127 ft | 9 kts | 189° |
| 2026-05-07 18:41 | 51.28068 | 6.76047 | 128 ft | 9 kts | 175° |
| 2026-05-07 18:41 | 51.28007 | 6.76049 | 123 ft | 8 kts | 180° |
| 2026-05-07 18:42 | 51.27960 | 6.76050 | 126 ft | 6 kts | 177° |
| 2026-05-07 18:42 | 51.27918 | 6.76052 | 128 ft | 5 kts | 180° |
| 2026-05-07 18:42 | 51.27887 | 6.76056 | 127 ft | 4 kts | 172° |
| 2026-05-07 18:42 | 51.27850 | 6.76084 | 127 ft | 7 kts | 137° |
| 2026-05-07 18:43 | 51.27838 | 6.76140 | 128 ft | 5 kts | 92° |
| 2026-05-07 18:43 | 51.27840 | 6.76188 | 128 ft | 4 kts | 86° |
| 2026-05-07 18:43 | 51.27842 | 6.76218 | 128 ft | 2 kts | 85° |
| 2026-05-07 18:43 | 51.27844 | 6.76239 | 126 ft | 3 kts | 77° |
| 2026-05-07 18:44 | 51.27853 | 6.76266 | 126 ft | 2 kts | 56° |
| 2026-05-07 18:44 | 51.27870 | 6.76297 | 128 ft | 10 kts | 47° |
| 2026-05-07 18:44 | 51.27887 | 6.76330 | 128 ft | 0 kts | 50° |
| 2026-05-07 18:50 | 51.27887 | 6.76331 | 129 ft | 0 kts | 50° |